Time;durP1;ratioP1;P1;durP2;ratioP2;P2;SDS_P1;SDS_P2;PMS_P1;PMS_P2;Temp;Humidity;BMP_temperature;BMP_pressure;BME280_temperature;BME280_humidity;BME280_pressure;Samples;Min_cycle;Max_cycle;Signal;HPM_P1;HPM_P2
2021/07/27 00:01:12;;;;;;;8.60;5.65;;;15.80;99.90;;;;;;5034103;28;20451;-67
2021/07/27 00:03:39;;;;;;;5.65;4.90;;;15.80;99.90;;;;;;5033249;28;20087;-66
2021/07/27 00:06:05;;;;;;;8.88;5.43;;;15.80;99.90;;;;;;5036687;28;20045;-65
2021/07/27 00:08:32;;;;;;;5.95;4.80;;;15.80;99.90;;;;;;5051623;28;20036;-67
2021/07/27 00:11:02;;;;;;;7.57;5.07;;;15.80;99.90;;;;;;5033039;28;20471;-65
2021/07/27 00:13:28;;;;;;;;;;;15.80;99.90;;;;;;5038423;28;20024;-65
2021/07/27 00:15:53;;;;;;;7.20;4.95;;;15.70;99.90;;;;;;5052493;28;20380;-66
2021/07/27 00:18:19;;;;;;;7.00;5.50;;;15.70;99.90;;;;;;5052506;28;20029;-65
2021/07/27 00:20:45;;;;;;;8.00;5.15;;;15.70;99.90;;;;;;5052110;28;20090;-66
2021/07/27 00:23:11;;;;;;;8.27;5.43;;;15.60;99.90;;;;;;5044936;28;20463;-66
2021/07/27 00:25:38;;;;;;;9.43;5.53;;;15.60;99.90;;;;;;5032441;28;20101;-66
2021/07/27 00:28:04;;;;;;;6.80;4.95;;;15.50;99.90;;;;;;5048086;28;20022;-65
2021/07/27 00:30:30;;;;;;;6.25;5.20;;;15.50;99.90;;;;;;5048813;28;20383;-66
2021/07/27 00:32:56;;;;;;;9.05;6.40;;;15.50;99.90;;;;;;5032442;28;20029;-65
2021/07/27 00:35:22;;;;;;;10.77;6.25;;;15.50;99.90;;;;;;5033068;28;20122;-66
2021/07/27 00:37:57;;;;;;;6.80;5.38;;;15.50;99.90;;;;;;5031816;28;20088;-66
2021/07/27 00:40:23;;;;;;;8.93;5.75;;;15.50;99.90;;;;;;5032801;28;20203;-65
2021/07/27 00:42:49;;;;;;;6.75;6.07;;;15.50;99.90;;;;;;5032090;28;20101;-65
2021/07/27 00:45:15;;;;;;;7.70;5.88;;;15.50;99.90;;;;;;5051680;28;20021;-66
2021/07/27 00:47:42;;;;;;;7.25;6.28;;;15.50;99.90;;;;;;5052211;28;20039;-66
2021/07/27 00:50:11;;;;;;;7.20;6.22;;;15.50;99.90;;;;;;5050668;28;20025;-65
2021/07/27 00:52:38;;;;;;;8.07;6.10;;;15.50;99.90;;;;;;5031634;28;20026;-67
2021/07/27 00:55:05;;;;;;;6.65;5.63;;;15.50;99.90;;;;;;5032525;28;20063;-66
2021/07/27 00:57:31;;;;;;;9.43;5.65;;;15.40;99.90;;;;;;5032480;28;20435;-66
2021/07/27 00:59:57;;;;;;;6.85;5.78;;;15.40;99.90;;;;;;5031166;28;20033;-65
2021/07/27 01:02:23;;;;;;;7.20;5.53;;;15.40;99.90;;;;;;5032615;28;20037;-66
2021/07/27 01:04:49;;;;;;;7.35;5.53;;;15.30;99.90;;;;;;5031613;28;20116;-66
2021/07/27 01:07:14;;;;;;;7.10;5.93;;;15.30;99.90;;;;;;5031899;28;20029;-66
2021/07/27 01:09:41;;;;;;;11.15;6.93;;;15.20;99.90;;;;;;5031832;28;20164;-66
2021/07/27 01:12:07;;;;;;;11.23;7.18;;;15.20;99.90;;;;;;5032259;28;20066;-65
2021/07/27 01:14:32;;;;;;;7.55;6.35;;;15.20;99.90;;;;;;5045815;28;20102;-65
2021/07/27 01:16:58;;;;;;;9.15;6.70;;;15.20;99.90;;;;;;5034876;28;20487;-66
2021/07/27 01:20:30;;;;;;;7.50;6.63;;;15.20;99.90;;;;;;5032141;28;20100;-65
2021/07/27 01:42:12;;;;;;;11.40;6.82;;;15.40;99.90;;;;;;5009825;28;20073;-65
2021/07/27 01:44:43;;;;;;;6.03;5.50;;;15.50;99.90;;;;;;5040663;28;20108;-67
2021/07/27 01:47:09;;;;;;;9.88;6.38;;;15.40;99.90;;;;;;5049497;28;20041;-65
2021/07/27 01:49:34;;;;;;;11.88;6.80;;;15.30;99.90;;;;;;5049431;28;20405;-67
2021/07/27 01:52:00;;;;;;;11.57;7.35;;;15.30;99.90;;;;;;5048843;28;20448;-66
2021/07/27 01:54:29;;;;;;;8.07;6.47;;;15.20;99.90;;;;;;5033260;28;20560;-65
2021/07/27 01:56:55;;;;;;;8.32;6.90;;;15.20;99.90;;;;;;5028362;28;20051;-66
2021/07/27 01:59:21;;;;;;;9.50;7.22;;;15.20;99.90;;;;;;5029266;28;20037;-65
2021/07/27 02:01:47;;;;;;;9.40;8.10;;;15.20;99.90;;;;;;5028649;28;20033;-66
2021/07/27 02:04:13;;;;;;;9.55;7.30;;;15.20;99.90;;;;;;5028967;28;20117;-65
2021/07/27 02:06:40;;;;;;;8.63;7.05;;;15.20;99.90;;;;;;5028725;28;20039;-67
2021/07/27 02:09:07;;;;;;;10.57;7.93;;;15.20;99.90;;;;;;5029254;28;20021;-66
2021/07/27 02:11:42;;;;;;;10.93;7.85;;;15.20;99.90;;;;;;5029402;28;20120;-65
2021/07/27 02:14:11;;;;;;;9.40;7.30;;;15.10;99.90;;;;;;5034619;28;20040;-66
2021/07/27 02:16:37;;;;;;;9.25;7.60;;;15.10;99.90;;;;;;5051323;28;20032;-67
2021/07/27 02:19:04;;;;;;;9.73;7.88;;;15.10;99.90;;;;;;5051261;28;20029;-65
2021/07/27 02:21:30;;;;;;;9.75;7.63;;;15.10;99.90;;;;;;5051520;28;20083;-66
2021/07/27 02:24:00;;;;;;;10.48;7.97;;;15.00;99.90;;;;;;5039587;28;20724;-66
2021/07/27 02:26:26;;;;;;;;;;;15.00;99.90;;;;;;5031658;28;20425;-65
2021/07/27 02:28:51;;;;;;;13.55;7.80;;;15.00;99.90;;;;;;5031960;28;19905;-65
2021/07/27 02:31:25;;;;;;;13.38;8.70;;;14.90;99.90;;;;;;5035605;28;20053;-65
2021/07/27 02:33:51;;;;;;;9.77;7.95;;;14.90;99.90;;;;;;5034555;28;20449;-65
2021/07/27 02:36:17;;;;;;;13.95;8.25;;;14.90;99.90;;;;;;5035561;28;20105;-65
2021/07/27 02:38:42;;;;;;;10.55;7.70;;;14.90;99.90;;;;;;5034580;28;20048;-65
2021/07/27 02:41:12;;;;;;;10.98;8.10;;;14.90;99.90;;;;;;5035357;28;20064;-65
2021/07/27 02:43:37;;;;;;;14.27;8.32;;;14.90;99.90;;;;;;5040568;28;20112;-66
2021/07/27 02:46:03;;;;;;;10.65;7.72;;;14.90;99.90;;;;;;5055105;28;20100;-65
2021/07/27 02:48:28;;;;;;;10.10;8.10;;;14.90;99.90;;;;;;5055161;28;20067;-65
2021/07/27 02:51:01;;;;;;;11.82;8.13;;;15.00;99.90;;;;;;5054419;28;20033;-65
2021/07/27 02:53:30;;;;;;;10.85;7.35;;;15.10;99.90;;;;;;5048317;28;20108;-65
2021/07/27 02:55:58;;;;;;;9.45;7.25;;;15.20;99.90;;;;;;5053582;28;20021;-65
2021/07/27 02:58:23;;;;;;;8.13;6.93;;;15.20;99.90;;;;;;5049103;28;20022;-65
2021/07/27 03:00:49;;;;;;;10.88;7.00;;;15.30;99.90;;;;;;5034176;28;20063;-65
2021/07/27 03:03:15;;;;;;;8.80;7.03;;;15.40;99.90;;;;;;5034813;28;20027;-65
2021/07/27 03:05:40;;;;;;;9.77;6.03;;;15.50;99.90;;;;;;5034365;28;20029;-67
2021/07/27 03:08:17;;;;;;;8.25;6.35;;;15.60;99.90;;;;;;5034788;28;20040;-65
2021/07/27 03:10:43;;;;;;;8.75;6.53;;;15.60;99.90;;;;;;5033926;28;20411;-66
2021/07/27 03:13:08;;;;;;;7.85;6.25;;;15.60;99.90;;;;;;5035614;28;20095;-65
2021/07/27 03:15:34;;;;;;;6.97;6.15;;;15.70;99.90;;;;;;5034682;28;20040;-65
2021/07/27 03:18:00;;;;;;;12.68;6.70;;;15.60;99.90;;;;;;5033984;28;20619;-65
2021/07/27 03:20:27;;;;;;;8.60;6.93;;;15.50;99.90;;;;;;5034139;28;20029;-65
2021/07/27 03:22:54;;;;;;;6.90;6.20;;;15.50;99.90;;;;;;5032300;28;20037;-66
2021/07/27 03:25:20;;;;;;;8.88;6.18;;;15.50;99.90;;;;;;5034678;28;20030;-64
2021/07/27 03:27:48;;;;;;;8.90;6.68;;;15.40;99.90;;;;;;5033801;28;20471;-65
2021/07/27 03:30:15;;;;;;;10.18;7.40;;;15.40;99.90;;;;;;5034375;28;20459;-65
2021/07/27 03:32:42;;;;;;;9.77;7.50;;;15.30;99.90;;;;;;5033905;28;20022;-68
2021/07/27 03:35:08;;;;;;;8.85;6.55;;;15.30;99.90;;;;;;5034397;28;20383;-65
2021/07/27 03:37:34;;;;;;;8.32;6.68;;;15.30;99.90;;;;;;5032650;28;20060;-65
2021/07/27 03:40:01;;;;;;;7.93;6.88;;;15.30;99.90;;;;;;5032432;28;20033;-65
2021/07/27 03:42:27;;;;;;;8.38;6.35;;;15.20;99.90;;;;;;5050093;28;20040;-66
2021/07/27 03:44:57;;;;;;;7.60;6.80;;;15.30;99.90;;;;;;5051076;28;20033;-65
2021/07/27 03:47:23;;;;;;;11.38;8.13;;;15.20;99.90;;;;;;5055026;28;20494;-65
2021/07/27 03:49:48;;;;;;;7.85;7.00;;;15.20;99.90;;;;;;5035385;28;20037;-65
2021/07/27 03:52:14;;;;;;;10.02;7.10;;;15.30;99.90;;;;;;5033787;28;20470;-65
2021/07/27 03:54:40;;;;;;;8.77;6.90;;;15.30;99.90;;;;;;5033533;28;20036;-67
2021/07/27 03:57:05;;;;;;;11.68;7.20;;;15.30;99.90;;;;;;5033372;28;20029;-65
2021/07/27 03:59:31;;;;;;;10.00;7.63;;;15.30;99.90;;;;;;5033579;28;20105;-66
2021/07/27 04:01:57;;;;;;;12.48;8.65;;;15.30;99.90;;;;;;5032993;28;20040;-65
2021/07/27 04:04:23;;;;;;;15.98;8.15;;;15.40;99.90;;;;;;5037099;28;20060;-65
2021/07/27 04:06:49;;;;;;;12.52;8.05;;;15.40;99.90;;;;;;5031177;28;20029;-65
2021/07/27 04:09:15;;;;;;;9.88;7.95;;;15.40;99.90;;;;;;5032599;28;20072;-65
2021/07/27 04:11:41;;;;;;;11.02;7.60;;;15.40;99.90;;;;;;5031735;28;20463;-67
2021/07/27 04:14:09;;;;;;;9.85;7.70;;;15.50;99.90;;;;;;5032083;28;20055;-65
2021/07/27 04:16:39;;;;;;;8.05;7.07;;;15.40;99.90;;;;;;5031752;28;20030;-65
2021/07/27 04:19:07;;;;;;;10.48;7.68;;;15.40;99.90;;;;;;5029400;28;20040;-65
2021/07/27 04:21:33;;;;;;;10.23;8.35;;;15.40;99.90;;;;;;5031816;28;20040;-65
2021/07/27 04:24:00;;;;;;;10.93;7.40;;;15.50;99.90;;;;;;5030805;28;20041;-65
2021/07/27 04:26:27;;;;;;;10.70;8.45;;;15.50;99.90;;;;;;5031036;28;20037;-65
2021/07/27 04:28:53;;;;;;;8.20;7.30;;;15.50;99.90;;;;;;5031339;28;20051;-65
2021/07/27 04:31:19;;;;;;;10.63;8.07;;;15.50;99.90;;;;;;5031863;28;20029;-65
2021/07/27 04:33:45;;;;;;;9.35;8.05;;;15.50;99.90;;;;;;5031074;28;20033;-66
2021/07/27 04:36:11;;;;;;;10.93;8.40;;;15.50;99.90;;;;;;5032051;28;20032;-65
2021/07/27 04:38:37;;;;;;;11.85;7.68;;;15.60;99.90;;;;;;5031600;28;20463;-65
2021/07/27 04:41:06;;;;;;;15.27;7.53;;;15.70;99.90;;;;;;5031025;28;20128;-65
2021/07/27 04:43:32;;;;;;;10.95;7.25;;;15.70;99.90;;;;;;5031798;28;20045;-65
2021/07/27 04:46:02;;;;;;;8.82;6.43;;;15.80;99.90;;;;;;5031179;28;20025;-65
2021/07/27 04:48:28;;;;;;;6.60;5.80;;;15.80;99.90;;;;;;5033039;28;20030;-65
2021/07/27 04:50:55;;;;;;;14.60;6.55;;;15.80;99.90;;;;;;5032198;28;20040;-65
2021/07/27 04:53:29;;;;;;;12.43;6.65;;;15.80;99.90;;;;;;5032681;28;20099;-65
2021/07/27 04:55:59;;;;;;;6.40;5.72;;;15.90;99.90;;;;;;5031956;28;20021;-65
2021/07/27 04:58:24;;;;;;;8.73;6.65;;;15.90;99.90;;;;;;5032802;28;20029;-66
2021/07/27 05:00:50;;;;;;;10.55;6.68;;;15.90;99.90;;;;;;5031459;28;20037;-66
2021/07/27 05:03:16;;;;;;;10.90;7.55;;;16.00;99.90;;;;;;5032590;28;20031;-65
2021/07/27 05:05:41;;;;;;;9.65;7.03;;;16.10;99.90;;;;;;5043397;28;20033;-67
2021/07/27 05:08:07;;;;;;;20.27;7.35;;;16.20;99.90;;;;;;5051889;28;20104;-65
2021/07/27 05:10:33;;;;;;;10.02;7.00;;;16.30;99.90;;;;;;5033268;28;20116;-66
2021/07/27 05:12:58;;;;;;;9.82;6.57;;;16.30;99.90;;;;;;5031815;28;20029;-65
2021/07/27 05:15:25;;;;;;;10.20;7.15;;;16.40;99.90;;;;;;5052569;28;20021;-65
2021/07/27 05:17:58;;;;;;;8.82;6.55;;;16.40;99.90;;;;;;5051028;28;20074;-65
2021/07/27 05:20:23;;;;;;;8.43;6.80;;;16.40;99.90;;;;;;5052350;28;20055;-65
2021/07/27 05:22:49;;;;;;;9.52;6.60;;;16.50;99.90;;;;;;5045661;28;20112;-65
2021/07/27 05:25:21;;;;;;;10.82;6.40;;;16.60;99.90;;;;;;5032137;28;20033;-65
2021/07/27 05:27:47;;;;;;;10.50;6.63;;;16.70;99.90;;;;;;5030098;28;20028;-66
2021/07/27 05:30:14;;;;;;;7.68;5.88;;;16.80;99.90;;;;;;5032380;28;20029;-65
2021/07/27 05:32:40;;;;;;;12.48;7.03;;;16.90;99.90;;;;;;5031618;28;20037;-65
2021/07/27 05:35:06;;;;;;;8.27;6.50;;;16.90;99.90;;;;;;5031538;28;20172;-65
2021/07/27 05:37:32;;;;;;;9.15;6.80;;;17.00;99.90;;;;;;5031878;28;20076;-65
2021/07/27 05:39:58;;;;;;;8.02;6.13;;;17.10;99.90;;;;;;5037685;28;20470;-65
2021/07/27 05:42:23;;;;;;;11.85;6.65;;;17.20;99.90;;;;;;5052268;28;20411;-65
2021/07/27 05:44:49;;;;;;;6.47;5.82;;;17.30;99.90;;;;;;5022966;28;20061;-66
2021/07/27 05:47:15;;;;;;;7.80;6.28;;;17.30;99.90;;;;;;5031147;28;20057;-65
2021/07/27 05:49:41;;;;;;;9.68;5.70;;;17.50;99.90;;;;;;5032070;28;20116;-65
2021/07/27 05:52:11;;;;;;;12.65;5.80;;;17.60;99.90;;;;;;5030604;28;20083;-66
2021/07/27 05:54:37;;;;;;;12.48;6.18;;;17.70;99.90;;;;;;5031814;28;20396;-66
2021/07/27 05:57:03;;;;;;;8.38;5.45;;;17.80;99.90;;;;;;5029972;28;20033;-64
2021/07/27 05:59:29;;;;;;;9.65;5.85;;;17.80;99.90;;;;;;5031978;28;20112;-64
2021/07/27 06:01:55;;;;;;;8.85;5.78;;;17.80;99.90;;;;;;5030809;28;20075;-66
2021/07/27 06:04:21;;;;;;;8.63;6.18;;;17.90;99.90;;;;;;5030752;28;20064;-65
2021/07/27 06:06:47;;;;;;;9.02;5.70;;;18.00;99.90;;;;;;5030676;28;20463;-69
2021/07/27 06:09:14;;;;;;;6.72;5.72;;;18.10;99.90;;;;;;5030105;28;20034;-63
2021/07/27 06:11:40;;;;;;;8.88;6.10;;;18.20;99.90;;;;;;5031660;28;20053;-68
2021/07/27 06:14:09;;;;;;;8.55;5.22;;;18.40;99.90;;;;;;5035760;28;20021;-62
2021/07/27 06:16:36;;;;;;;5.60;5.07;;;18.60;99.90;;;;;;5051614;28;20017;-65
2021/07/27 06:19:02;;;;;;;8.23;4.90;;;18.80;99.90;;;;;;5034515;28;20026;-64
2021/07/27 06:21:28;;;;;;;6.63;5.18;;;19.00;99.90;;;;;;5031392;28;20082;-64
2021/07/27 06:23:54;;;;;;;7.65;4.75;;;19.20;99.90;;;;;;5030701;28;20098;-64
2021/07/27 06:26:19;;;;;;;7.95;4.57;;;19.50;99.90;;;;;;5032001;28;20040;-64
2021/07/27 06:28:45;;;;;;;6.05;4.88;;;19.70;99.90;;;;;;5031276;28;20542;-65
2021/07/27 06:31:11;;;;;;;5.55;4.53;;;19.90;99.90;;;;;;5030539;28;20071;-64
2021/07/27 06:33:46;;;;;;;7.20;4.70;;;20.00;99.90;;;;;;5031094;28;20115;-64
2021/07/27 06:36:13;;;;;;;6.18;4.40;;;20.10;99.90;;;;;;5031363;28;20065;-64
2021/07/27 06:38:39;;;;;;;7.97;4.57;;;20.30;99.90;;;;;;5030994;28;20522;-64
2021/07/27 06:41:06;;;;;;;8.18;5.00;;;20.30;99.90;;;;;;5030753;28;20045;-64
2021/07/27 06:43:35;;;;;;;6.15;4.53;;;20.40;99.90;;;;;;5028532;28;20041;-64
2021/07/27 06:46:01;;;;;;;8.68;4.88;;;20.40;99.90;;;;;;5030104;28;20026;-64
2021/07/27 06:48:26;;;;;;;5.82;4.20;;;20.50;99.90;;;;;;5030903;28;20041;-64
2021/07/27 06:50:53;;;;;;;6.07;4.85;;;20.50;99.90;;;;;;5030275;28;20116;-64
2021/07/27 06:53:19;;;;;;;7.05;4.97;;;20.50;99.90;;;;;;5031432;28;20112;-64
2021/07/27 06:55:46;;;;;;;5.88;4.30;;;20.50;99.90;;;;;;5031261;28;20443;-65
2021/07/27 06:58:11;;;;;;;5.43;4.38;;;20.50;99.90;;;;;;5030245;28;20029;-64
2021/07/27 07:00:41;;;;;;;5.80;4.00;;;20.50;99.90;;;;;;5030973;28;20485;-64
2021/07/27 07:03:07;;;;;;;6.60;5.15;;;20.60;99.90;;;;;;5030029;28;20029;-64
2021/07/27 07:05:33;;;;;;;9.60;5.18;;;20.70;99.90;;;;;;5028850;28;20573;-64
2021/07/27 07:07:59;;;;;;;8.85;5.18;;;20.80;99.90;;;;;;5029875;28;20022;-65
2021/07/27 07:10:24;;;;;;;7.28;5.60;;;21.00;99.90;;;;;;5030262;28;20036;-64
2021/07/27 07:12:50;;;;;;;8.13;5.35;;;21.20;99.90;;;;;;5029820;28;20108;-66
2021/07/27 07:15:16;;;;;;;6.30;5.00;;;21.30;99.90;;;;;;5051111;28;20039;-65
2021/07/27 07:17:41;;;;;;;6.57;4.60;;;21.30;99.90;;;;;;5038809;28;20060;-65
2021/07/27 07:20:08;;;;;;;6.53;4.85;;;21.50;99.90;;;;;;5033067;28;20120;-65
2021/07/27 07:22:35;;;;;;;5.03;4.43;;;21.50;99.90;;;;;;5033970;28;20095;-63
2021/07/27 07:25:00;;;;;;;5.75;4.53;;;21.60;99.90;;;;;;5033615;28;20084;-65
2021/07/27 07:27:26;;;;;;;8.23;4.72;;;21.70;99.90;;;;;;5034323;28;20026;-65
2021/07/27 07:29:56;;;;;;;10.68;4.45;;;21.80;99.90;;;;;;5033310;28;20021;-65
2021/07/27 07:32:22;;;;;;;16.70;4.63;;;21.90;99.90;;;;;;5034380;28;20032;-65
2021/07/27 07:34:48;;;;;;;6.68;4.88;;;22.10;99.90;;;;;;5033714;28;20030;-65
2021/07/27 07:37:15;;;;;;;8.82;4.90;;;22.10;99.90;;;;;;5033630;28;20025;-63
2021/07/27 07:39:40;;;;;;;5.80;4.70;;;22.00;99.90;;;;;;5033527;28;20037;-64
2021/07/27 07:42:07;;;;;;;9.15;4.60;;;21.70;99.90;;;;;;5033071;28;20057;-63
2021/07/27 07:44:35;;;;;;;6.57;4.50;;;21.50;99.90;;;;;;5047314;28;20112;-63
2021/07/27 07:47:02;;;;;;;6.68;4.47;;;21.30;99.90;;;;;;5032915;28;20368;-64
2021/07/27 07:49:28;;;;;;;6.40;4.38;;;21.40;99.90;;;;;;5033508;28;20061;-63
2021/07/27 07:51:56;;;;;;;5.38;4.43;;;21.50;99.90;;;;;;5032926;28;20038;-64
2021/07/27 07:54:24;;;;;;;6.13;4.45;;;21.50;99.90;;;;;;5033951;28;20071;-65
2021/07/27 07:56:50;;;;;;;6.88;4.57;;;21.60;99.90;;;;;;5033417;28;20545;-66
2021/07/27 07:59:16;;;;;;;6.70;4.85;;;21.80;99.90;;;;;;5032460;28;20022;-65
2021/07/27 08:01:45;;;;;;;6.43;4.63;;;22.00;99.90;;;;;;5033712;28;20475;-65
2021/07/27 08:04:11;;;;;;;6.05;4.88;;;22.30;99.90;;;;;;5031461;28;20025;-65
2021/07/27 08:06:38;;;;;;;6.03;4.20;;;22.50;99.90;;;;;;5033217;28;20467;-63
2021/07/27 08:09:04;;;;;;;6.30;4.70;;;22.80;97.70;;;;;;5032207;28;20032;-65
2021/07/27 08:11:30;;;;;;;7.45;4.18;;;22.90;97.60;;;;;;5033509;28;20042;-65
2021/07/27 08:13:57;;;;;;;7.00;4.60;;;23.10;97.70;;;;;;5032904;28;20390;-66
2021/07/27 08:16:23;;;;;;;7.55;4.25;;;23.30;97.20;;;;;;5033291;28;20029;-63
2021/07/27 08:18:49;;;;;;;6.50;4.22;;;23.50;96.90;;;;;;5033498;28;20036;-64
2021/07/27 08:21:15;;;;;;;6.72;4.15;;;23.60;96.20;;;;;;5032696;28;20026;-64
2021/07/27 08:23:45;;;;;;;5.13;4.38;;;23.50;93.00;;;;;;5033288;28;20156;-63
2021/07/27 08:26:11;;;;;;;;;;;23.50;92.80;;;;;;5032647;28;20185;-63
2021/07/27 08:28:37;;;;;;;9.32;4.68;;;23.50;93.30;;;;;;5032969;28;19912;-65
2021/07/27 08:31:03;;;;;;;8.60;4.57;;;23.50;94.80;;;;;;5031646;28;20025;-65
2021/07/27 08:33:29;;;;;;;6.72;4.57;;;23.40;96.40;;;;;;5032967;28;20490;-65
2021/07/27 08:35:54;;;;;;;10.25;4.68;;;23.40;95.80;;;;;;5031867;28;20037;-65
2021/07/27 08:38:20;;;;;;;6.00;4.35;;;23.30;96.20;;;;;;5032466;28;20041;-65
2021/07/27 08:40:49;;;;;;;9.00;4.93;;;23.10;97.50;;;;;;5033070;28;20390;-65
2021/07/27 08:43:17;;;;;;;7.90;4.82;;;23.10;97.10;;;;;;5033556;28;20090;-62
2021/07/27 08:45:49;;;;;;;7.18;4.63;;;23.00;97.90;;;;;;5032702;28;20056;-63
2021/07/27 08:48:15;;;;;;;7.10;5.00;;;22.90;97.90;;;;;;5030717;28;20028;-63
2021/07/27 08:50:43;;;;;;;7.45;4.65;;;22.90;98.20;;;;;;5032473;28;20037;-63
2021/07/27 08:53:09;;;;;;;7.85;5.05;;;22.90;98.60;;;;;;5032059;28;20033;-63
2021/07/27 08:55:34;;;;;;;7.50;5.32;;;23.00;97.30;;;;;;5032599;28;20029;-64
2021/07/27 08:58:00;;;;;;;9.68;5.63;;;23.00;97.80;;;;;;5031780;28;20100;-64
2021/07/27 09:00:27;;;;;;;5.28;4.50;;;23.10;96.90;;;;;;5032411;28;20091;-64
2021/07/27 09:02:53;;;;;;;11.35;5.35;;;23.20;96.90;;;;;;5032232;28;20026;-65
2021/07/27 09:05:20;;;;;;;9.00;5.55;;;23.40;96.60;;;;;;5031639;28;20041;-64
2021/07/27 09:07:46;;;;;;;7.13;5.50;;;23.40;96.50;;;;;;5031176;28;20121;-64
2021/07/27 09:10:12;;;;;;;6.20;5.30;;;23.50;95.30;;;;;;5028648;28;20577;-64
2021/07/27 09:12:38;;;;;;;8.40;6.00;;;23.50;95.10;;;;;;5032187;28;20497;-64
2021/07/27 09:15:05;;;;;;;9.07;4.95;;;23.50;94.60;;;;;;5049764;28;20021;-64
2021/07/27 09:17:32;;;;;;;8.88;5.97;;;23.40;94.90;;;;;;5043849;28;20066;-64
2021/07/27 09:19:58;;;;;;;11.88;5.85;;;23.20;94.20;;;;;;5031465;28;20021;-65
2021/07/27 09:22:23;;;;;;;9.43;5.32;;;23.10;95.10;;;;;;5032133;28;20082;-65
2021/07/27 09:24:49;;;;;;;11.60;5.65;;;23.10;96.20;;;;;;5032011;28;20033;-65
2021/07/27 09:27:15;;;;;;;7.60;5.70;;;23.10;95.50;;;;;;5031085;28;20032;-65
2021/07/27 09:29:45;;;;;;;7.18;5.50;;;23.10;94.90;;;;;;5032146;28;20036;-65
2021/07/27 09:32:19;;;;;;;10.25;5.95;;;23.10;94.80;;;;;;5021913;28;20219;-65
2021/07/27 09:34:45;;;;;;;7.60;5.68;;;23.20;93.30;;;;;;5031674;28;20498;-65
2021/07/27 09:37:11;;;;;;;6.03;4.80;;;23.20;93.60;;;;;;5031363;28;20033;-65
2021/07/27 09:39:37;;;;;;;5.15;4.65;;;23.20;94.40;;;;;;5030867;28;20048;-65
2021/07/27 09:42:07;;;;;;;6.10;5.38;;;23.10;94.70;;;;;;5030925;28;20438;-65
2021/07/27 09:44:33;;;;;;;8.93;5.05;;;23.20;94.40;;;;;;5046207;28;20094;-65
2021/07/27 09:47:01;;;;;;;6.40;4.90;;;23.40;93.00;;;;;;5051101;28;20040;-65
2021/07/27 09:49:28;;;;;;;7.75;5.70;;;23.60;93.60;;;;;;5038146;28;20372;-64
2021/07/27 09:51:58;;;;;;;10.10;5.75;;;23.90;92.60;;;;;;5031455;28;20032;-67
2021/07/27 09:54:25;;;;;;;9.82;5.78;;;24.10;91.50;;;;;;5031935;28;20034;-65
2021/07/27 09:56:54;;;;;;;6.18;5.20;;;24.40;90.20;;;;;;5031759;28;20033;-65
2021/07/27 09:59:21;;;;;;;5.93;5.28;;;24.60;88.30;;;;;;5031400;28;20043;-65
2021/07/27 10:01:54;;;;;;;6.15;4.63;;;24.80;82.40;;;;;;5031760;28;20021;-65
2021/07/27 10:04:24;;;;;;;9.50;5.07;;;24.80;85.40;;;;;;5030148;28;20124;-65
2021/07/27 10:06:51;;;;;;;7.25;4.90;;;24.80;83.20;;;;;;5031651;28;20030;-65
2021/07/27 10:09:30;;;;;;;8.20;5.15;;;24.90;81.80;;;;;;5030178;28;20912;-65
2021/07/27 10:12:32;;;;;;;7.68;4.78;;;25.30;84.90;;;;;;5030825;28;20124;-67
2021/07/27 10:15:11;;;;;;;8.48;5.25;;;25.70;82.00;;;;;;5039285;28;20538;-74
2021/07/27 10:17:54;;;;;;;8.43;5.28;;;26.10;79.00;;;;;;5021110;28;20049;-71
2021/07/27 10:20:24;;;;;;;7.70;4.72;;;26.40;77.50;;;;;;5030331;28;20120;-73
2021/07/27 10:22:50;;;;;;;6.32;5.18;;;26.50;76.60;;;;;;5031259;28;20030;-72
2021/07/27 10:25:17;;;;;;;5.78;5.15;;;26.50;75.60;;;;;;5029972;28;20026;-71
2021/07/27 10:27:50;;;;;;;5.22;4.32;;;26.60;73.30;;;;;;5031292;28;20017;-69
2021/07/27 10:30:17;;;;;;;7.38;4.57;;;26.50;71.70;;;;;;5030436;28;20562;-69
2021/07/27 10:32:53;;;;;;;5.28;4.78;;;26.60;71.90;;;;;;5031335;28;20029;-69
2021/07/27 10:35:32;;;;;;;6.38;4.63;;;26.60;69.50;;;;;;5030609;28;20036;-70
2021/07/27 10:38:12;;;;;;;5.30;4.70;;;26.60;70.30;;;;;;5030534;28;20049;-69
2021/07/27 10:40:38;;;;;;;6.17;5.03;;;26.60;71.00;;;;;;5011503;28;20045;-67
2021/07/27 10:43:05;;;;;;;4.95;4.47;;;26.50;69.60;;;;;;5024629;28;20514;-67
2021/07/27 10:45:30;;;;;;;6.03;4.85;;;26.60;67.90;;;;;;5050917;28;20474;-66
2021/07/27 10:47:57;;;;;;;6.60;4.78;;;26.60;68.60;;;;;;5051182;28;20025;-67
2021/07/27 10:50:30;;;;;;;5.53;4.10;;;26.60;68.00;;;;;;5033719;28;20069;-66
2021/07/27 10:53:13;;;;;;;5.75;4.40;;;26.50;67.30;;;;;;5033475;28;20455;-68
2021/07/27 10:55:45;;;;;;;8.30;4.50;;;26.40;66.80;;;;;;5035085;28;20220;-66
2021/07/27 10:58:16;;;;;;;5.35;4.85;;;26.40;66.00;;;;;;5034108;28;20033;-67
2021/07/27 11:00:42;;;;;;;8.40;4.90;;;26.60;66.80;;;;;;5015037;28;20034;-67
2021/07/27 11:03:07;;;;;;;5.38;4.72;;;26.90;64.50;;;;;;5013908;28;20467;-67
2021/07/27 11:05:34;;;;;;;7.80;5.00;;;26.90;65.00;;;;;;5015194;28;20166;-67
2021/07/27 11:08:00;;;;;;;7.32;4.65;;;27.00;63.80;;;;;;5026091;28;20033;-67
2021/07/27 11:10:26;;;;;;;4.85;4.25;;;27.10;64.30;;;;;;5034088;28;20042;-66
2021/07/27 11:12:56;;;;;;;4.38;3.97;;;27.30;64.50;;;;;;5034846;28;20117;-66
2021/07/27 11:15:24;;;;;;;8.23;4.85;;;27.60;64.70;;;;;;5039223;28;20032;-66
2021/07/27 11:17:53;;;;;;;5.20;4.55;;;27.70;63.00;;;;;;5034657;28;20478;-66
2021/07/27 11:20:22;;;;;;;5.82;4.57;;;27.80;62.70;;;;;;5033652;28;20099;-66
2021/07/27 11:22:50;;;;;;;4.60;4.20;;;27.90;62.00;;;;;;5033900;28;20037;-66
2021/07/27 11:25:23;;;;;;;4.05;3.70;;;28.10;61.20;;;;;;5032467;28;20025;-66
2021/07/27 11:27:50;;;;;;;5.25;3.67;;;28.30;60.80;;;;;;5034607;28;20041;-66
2021/07/27 11:30:19;;;;;;;4.53;4.05;;;28.30;58.60;;;;;;5033160;28;20037;-66
2021/07/27 11:32:48;;;;;;;4.05;3.63;;;28.40;58.50;;;;;;5034299;28;20037;-66
2021/07/27 11:35:17;;;;;;;4.80;4.30;;;28.40;58.80;;;;;;5033120;28;20470;-66
2021/07/27 11:37:44;;;;;;;5.18;3.80;;;28.30;58.00;;;;;;5033654;28;20049;-66
2021/07/27 11:40:25;;;;;;;5.30;4.38;;;28.20;56.80;;;;;;5032756;28;20041;-66
2021/07/27 11:43:05;;;;;;;5.70;4.18;;;28.20;58.90;;;;;;5034475;28;20041;-66
2021/07/27 11:45:32;;;;;;;4.82;4.35;;;28.20;57.70;;;;;;5049855;28;20025;-65
2021/07/27 11:47:58;;;;;;;6.38;3.67;;;28.10;57.30;;;;;;5033423;28;20378;-67
2021/07/27 11:50:31;;;;;;;4.45;3.70;;;28.00;59.00;;;;;;5033109;28;20037;-65
2021/07/27 11:53:01;;;;;;;3.67;3.40;;;28.00;60.60;;;;;;5033363;28;20084;-68
2021/07/27 11:55:29;;;;;;;6.57;4.68;;;28.00;59.60;;;;;;5034074;28;20467;-66
2021/07/27 11:57:55;;;;;;;5.22;4.05;;;28.00;59.60;;;;;;5033802;28;20544;-66
2021/07/27 12:00:21;;;;;;;5.63;3.72;;;27.90;59.90;;;;;;5031601;28;20136;-66
2021/07/27 12:02:46;;;;;;;8.55;4.97;;;27.90;59.70;;;;;;5032483;28;20486;-65
2021/07/27 12:05:12;;;;;;;5.00;4.53;;;28.00;60.60;;;;;;5033051;28;20471;-66
2021/07/27 12:07:38;;;;;;;5.38;4.43;;;27.90;60.10;;;;;;5033793;28;20474;-66
2021/07/27 12:10:06;;;;;;;5.63;4.40;;;27.90;61.00;;;;;;5032676;28;20394;-66
2021/07/27 12:12:32;;;;;;;7.75;4.32;;;27.80;60.90;;;;;;5033212;28;20017;-66
2021/07/27 12:14:58;;;;;;;4.57;4.18;;;27.80;61.40;;;;;;5050932;28;20037;-67
2021/07/27 12:17:24;;;;;;;6.93;4.40;;;27.90;60.90;;;;;;5053315;28;20156;-66
2021/07/27 12:19:49;;;;;;;3.95;3.55;;;27.90;61.90;;;;;;5034882;28;20065;-66
2021/07/27 12:22:15;;;;;;;5.93;3.90;;;27.90;62.00;;;;;;5032080;28;20041;-66
2021/07/27 12:24:41;;;;;;;5.22;3.90;;;28.10;61.20;;;;;;5037898;28;20037;-66
2021/07/27 12:27:07;;;;;;;3.88;3.58;;;28.10;60.00;;;;;;5052441;28;20048;-66
2021/07/27 12:29:33;;;;;;;4.32;3.63;;;28.20;60.10;;;;;;5040473;28;20029;-66
2021/07/27 12:31:59;;;;;;;4.97;3.72;;;28.30;60.40;;;;;;5033099;28;20032;-68
2021/07/27 12:34:24;;;;;;;4.55;4.00;;;28.40;60.30;;;;;;5039479;28;20103;-66
2021/07/27 12:36:50;;;;;;;4.40;3.90;;;28.60;59.60;;;;;;5048390;28;20484;-66
2021/07/27 12:39:16;;;;;;;4.40;3.63;;;28.80;57.90;;;;;;5029069;28;20469;-66
2021/07/27 12:41:43;;;;;;;3.65;3.28;;;29.00;57.40;;;;;;5052651;28;20061;-66
2021/07/27 12:44:10;;;;;;;9.40;3.85;;;29.10;56.70;;;;;;5051973;28;20078;-66
2021/07/27 12:46:35;;;;;;;3.90;3.47;;;29.20;54.00;;;;;;5052756;28;20025;-66
2021/07/27 12:49:02;;;;;;;4.55;3.72;;;29.30;54.20;;;;;;5052268;28;20024;-68
2021/07/27 12:51:27;;;;;;;3.65;3.33;;;29.40;53.90;;;;;;5052939;28;20035;-66
2021/07/27 12:53:53;;;;;;;3.78;3.47;;;29.50;54.80;;;;;;5043331;28;20219;-66
2021/07/27 12:56:19;;;;;;;4.22;3.30;;;29.50;53.30;;;;;;5044135;28;20048;-66
2021/07/27 12:58:44;;;;;;;6.50;4.15;;;29.50;53.80;;;;;;5052640;28;20470;-66
2021/07/27 13:01:10;;;;;;;3.33;2.83;;;29.40;53.20;;;;;;5035874;28;20033;-66
2021/07/27 13:03:36;;;;;;;3.60;3.30;;;29.50;53.30;;;;;;5032255;28;20060;-66
2021/07/27 13:06:02;;;;;;;3.95;3.55;;;29.70;54.30;;;;;;5030954;28;20033;-68